createdAt,value
2023-05-25T00:00:41.770Z,25.01
2023-05-25T00:01:37.423Z,25.01
2023-05-25T00:02:36.501Z,25.00
2023-05-25T00:03:36.509Z,25.01
2023-05-25T00:04:36.559Z,25.01
2023-05-25T00:05:36.390Z,25.01
2023-05-25T00:06:36.404Z,25.01
2023-05-25T00:07:36.360Z,25.01
2023-05-25T00:08:36.378Z,25.00
2023-05-25T00:09:36.341Z,25.01
2023-05-25T00:10:36.324Z,25.01
2023-05-25T00:11:36.391Z,25.00
2023-05-25T00:12:36.342Z,25.00
2023-05-25T00:13:36.314Z,25.00
2023-05-25T00:14:36.316Z,25.00
2023-05-25T00:15:36.317Z,25.00
2023-05-25T00:16:36.326Z,25.00
2023-05-25T00:17:36.353Z,25.00
2023-05-25T00:18:36.319Z,25.00
2023-05-25T00:19:36.348Z,25.00
2023-05-25T00:20:36.423Z,24.99
2023-05-25T00:21:36.407Z,24.99
2023-05-25T00:22:36.455Z,25.00
2023-05-25T00:23:36.481Z,25.00
2023-05-25T00:24:36.470Z,25.00
2023-05-25T00:25:36.488Z,24.99
2023-05-25T00:26:36.499Z,24.99
2023-05-25T00:27:36.518Z,25.00
2023-05-25T00:28:36.601Z,25.00
2023-05-25T00:29:36.622Z,24.99
2023-05-25T00:30:36.714Z,24.99
2023-05-25T00:31:36.725Z,24.99
2023-05-25T00:32:36.678Z,24.99
2023-05-25T00:33:36.703Z,24.99
2023-05-25T00:34:36.688Z,24.99
2023-05-25T00:35:36.731Z,24.99
2023-05-25T00:36:36.756Z,25.00
2023-05-25T00:37:36.748Z,24.99
2023-05-25T00:38:36.829Z,24.99
2023-05-25T00:39:36.808Z,24.99
2023-05-25T00:40:36.837Z,24.99
2023-05-25T00:41:36.843Z,24.99
2023-05-25T00:42:36.896Z,24.99
2023-05-25T00:43:36.944Z,24.98
2023-05-25T00:44:36.938Z,24.98
2023-05-25T00:45:36.977Z,24.98
2023-05-25T00:46:37.076Z,24.98
2023-05-25T00:47:37.019Z,24.98
2023-05-25T00:48:37.064Z,24.98
2023-05-25T00:49:37.070Z,24.98
2023-05-25T00:50:37.079Z,24.99
2023-05-25T00:51:37.116Z,24.98
2023-05-25T00:52:37.154Z,24.98
2023-05-25T00:53:37.185Z,24.98
2023-05-25T00:54:37.205Z,24.97
2023-05-25T00:55:37.209Z,24.98
2023-05-25T00:56:37.221Z,24.97
2023-05-25T00:57:37.268Z,24.97
2023-05-25T00:58:37.355Z,24.97
2023-05-25T00:59:37.336Z,24.97
2023-05-25T01:00:37.359Z,24.97
2023-05-25T01:01:37.443Z,24.97
2023-05-25T01:02:37.463Z,24.97
2023-05-25T01:03:37.549Z,24.96
2023-05-25T01:04:37.473Z,24.97
2023-05-25T01:05:37.485Z,24.97
2023-05-25T01:06:37.558Z,24.97
2023-05-25T01:07:37.537Z,24.96
2023-05-25T01:08:37.551Z,24.97
2023-05-25T01:09:37.593Z,24.97
2023-05-25T01:10:37.605Z,24.96
2023-05-25T01:11:37.633Z,24.96
2023-05-25T01:12:37.665Z,24.97
2023-05-25T01:13:37.682Z,24.96
2023-05-25T01:14:37.686Z,24.96
2023-05-25T01:15:37.731Z,24.96
2023-05-25T01:16:37.855Z,24.96
2023-05-25T01:17:37.839Z,24.95
2023-05-25T01:18:37.868Z,24.96
2023-05-25T01:19:37.890Z,24.96
2023-05-25T01:20:37.995Z,24.96
2023-05-25T01:21:38.023Z,24.95
2023-05-25T01:22:37.959Z,24.96
2023-05-25T01:23:38.015Z,24.96
2023-05-25T01:24:38.010Z,24.96
2023-05-25T01:25:38.068Z,24.95
2023-05-25T01:26:38.074Z,24.96
2023-05-25T01:27:38.077Z,24.96
2023-05-25T01:28:38.097Z,24.95
2023-05-25T01:29:38.142Z,24.95
2023-05-25T01:30:38.149Z,24.95
2023-05-25T01:31:38.236Z,24.95
2023-05-25T01:32:38.243Z,24.96
2023-05-25T01:33:38.218Z,24.95
2023-05-25T01:34:38.262Z,24.95
2023-05-25T01:35:38.290Z,24.95
2023-05-25T01:36:38.326Z,24.94
2023-05-25T01:37:38.376Z,24.95
2023-05-25T01:38:38.354Z,24.95
2023-05-25T01:39:38.369Z,24.95
2023-05-25T01:40:38.431Z,24.95
2023-05-25T01:41:38.461Z,24.94
2023-05-25T01:42:38.454Z,24.95
2023-05-25T01:43:38.515Z,24.94
2023-05-25T01:44:38.546Z,24.95
2023-05-25T01:45:38.645Z,24.93
2023-05-25T01:46:38.627Z,24.94
2023-05-25T01:47:38.688Z,24.94
2023-05-25T01:48:38.622Z,24.93
2023-05-25T01:49:38.698Z,24.93
2023-05-25T01:50:38.696Z,24.92
2023-05-25T01:51:38.715Z,24.93
2023-05-25T01:52:38.720Z,24.93
2023-05-25T01:53:38.778Z,24.93
2023-05-25T01:54:38.830Z,24.93
2023-05-25T01:55:38.829Z,24.93
2023-05-25T01:56:38.866Z,24.93
2023-05-25T01:57:38.901Z,24.92
2023-05-25T01:58:38.935Z,24.92
2023-05-25T01:59:38.983Z,24.92
2023-05-25T02:00:38.982Z,24.92
2023-05-25T02:01:39.007Z,24.92
2023-05-25T02:02:39.064Z,24.91
2023-05-25T02:03:39.064Z,24.92
2023-05-25T02:04:39.165Z,24.92
2023-05-25T02:05:39.137Z,24.92
2023-05-25T02:06:39.171Z,24.93
2023-05-25T02:07:39.179Z,24.92
2023-05-25T02:08:39.214Z,24.92
2023-05-25T02:09:39.231Z,24.92
2023-05-25T02:10:39.295Z,24.92
2023-05-25T02:11:39.289Z,24.91
2023-05-25T02:12:39.312Z,24.91
2023-05-25T02:13:39.385Z,24.92
2023-05-25T02:14:39.401Z,24.91
2023-05-25T02:15:39.462Z,24.91
2023-05-25T02:16:39.442Z,24.92
2023-05-25T02:17:39.564Z,24.92
2023-05-25T02:18:39.515Z,24.91
2023-05-25T02:19:39.553Z,24.92
2023-05-25T02:20:39.712Z,24.92
2023-05-25T02:21:39.627Z,24.91
2023-05-25T02:22:39.652Z,24.91
2023-05-25T02:23:39.665Z,24.91
2023-05-25T02:24:39.714Z,24.91
2023-05-25T02:25:39.721Z,24.91
2023-05-25T02:26:39.773Z,24.91
2023-05-25T02:27:39.797Z,24.91
2023-05-25T02:28:39.835Z,24.90
2023-05-25T02:29:39.806Z,24.90
2023-05-25T02:30:39.892Z,24.91
2023-05-25T02:31:40.018Z,24.91
2023-05-25T02:32:40.050Z,24.90
2023-05-25T02:33:39.977Z,24.90
2023-05-25T02:34:40.028Z,24.90
2023-05-25T02:35:40.031Z,24.90
2023-05-25T02:36:40.045Z,24.90
2023-05-25T02:37:40.118Z,24.89
2023-05-25T02:38:40.118Z,24.90
2023-05-25T02:39:40.214Z,24.90
2023-05-25T02:40:40.166Z,24.90
2023-05-25T02:41:40.227Z,24.89
2023-05-25T02:42:40.243Z,24.90
2023-05-25T02:43:40.236Z,24.89
2023-05-25T02:44:40.298Z,24.89
2023-05-25T02:45:40.326Z,24.89
2023-05-25T02:46:40.407Z,24.89
2023-05-25T02:47:40.434Z,24.89
2023-05-25T02:48:40.437Z,24.90
2023-05-25T02:49:40.491Z,24.90
2023-05-25T02:50:40.516Z,24.90
2023-05-25T02:51:40.571Z,24.89
2023-05-25T02:52:40.551Z,24.90
2023-05-25T02:53:40.615Z,24.89
2023-05-25T02:54:40.619Z,24.89
2023-05-25T02:55:40.770Z,24.89
2023-05-25T02:56:40.688Z,24.89
2023-05-25T02:57:40.728Z,24.89
2023-05-25T02:58:40.769Z,24.89
2023-05-25T02:59:40.779Z,24.89
2023-05-25T03:00:40.848Z,24.89
2023-05-25T03:01:40.905Z,24.88
2023-05-25T03:02:40.898Z,24.88
2023-05-25T03:03:40.984Z,24.88
2023-05-25T03:04:40.917Z,24.88
2023-05-25T03:05:41.035Z,24.88
2023-05-25T03:06:40.993Z,24.88
2023-05-25T03:07:41.064Z,24.88
2023-05-25T03:08:41.048Z,24.87
2023-05-25T03:09:41.074Z,24.87
2023-05-25T03:10:41.103Z,24.88
2023-05-25T03:11:41.205Z,24.87
2023-05-25T03:12:41.201Z,24.87
2023-05-25T03:13:41.251Z,24.88
2023-05-25T03:14:41.261Z,24.87
2023-05-25T03:15:41.406Z,24.88
2023-05-25T03:16:41.336Z,24.87
2023-05-25T03:17:41.422Z,24.87
2023-05-25T03:18:41.396Z,24.87
2023-05-25T03:19:41.458Z,24.87
2023-05-25T03:20:41.506Z,24.87
2023-05-25T03:21:41.501Z,24.87
2023-05-25T03:22:41.569Z,24.87
2023-05-25T03:23:41.564Z,24.87
2023-05-25T03:24:41.837Z,24.87
2023-05-25T03:25:41.715Z,24.87
2023-05-25T03:26:41.698Z,24.87
2023-05-25T03:27:41.695Z,24.87
2023-05-25T03:28:41.725Z,24.87
2023-05-25T03:29:41.756Z,24.87
2023-05-25T03:30:41.779Z,24.87
2023-05-25T03:31:41.885Z,24.87
2023-05-25T03:32:41.877Z,24.86
2023-05-25T03:33:41.855Z,24.87
2023-05-25T03:34:41.909Z,24.87
2023-05-25T03:35:42.051Z,24.87
2023-05-25T03:36:41.987Z,24.87
2023-05-25T03:37:42.037Z,24.87
2023-05-25T03:38:42.054Z,24.87
2023-05-25T03:39:42.081Z,24.87
2023-05-25T03:40:42.126Z,24.87
2023-05-25T03:41:42.182Z,24.88
2023-05-25T03:42:42.185Z,24.87
2023-05-25T03:43:42.216Z,24.87
2023-05-25T03:44:42.264Z,24.87
2023-05-25T03:45:42.381Z,24.88
2023-05-25T03:46:42.352Z,24.88
2023-05-25T03:47:42.438Z,24.88
2023-05-25T03:48:42.490Z,24.88
2023-05-25T03:49:42.446Z,24.88
2023-05-25T03:50:42.489Z,24.88
2023-05-25T03:51:42.492Z,24.89
2023-05-25T03:52:42.548Z,24.88
2023-05-25T03:53:42.700Z,24.88
2023-05-25T03:54:42.695Z,24.88
2023-05-25T03:55:42.718Z,24.89
2023-05-25T03:56:42.693Z,24.89
2023-05-25T03:57:42.722Z,24.90
2023-05-25T03:58:42.724Z,24.89
2023-05-25T03:59:42.820Z,24.90
2023-05-25T04:00:42.820Z,24.90
2023-05-25T04:01:42.847Z,24.90
2023-05-25T04:02:42.949Z,24.90
2023-05-25T04:03:43.081Z,24.89
2023-05-25T04:04:43.004Z,24.89
2023-05-25T04:05:43.287Z,24.87
2023-05-25T04:06:43.028Z,24.88
2023-05-25T04:07:43.061Z,24.88
2023-05-25T04:08:43.105Z,24.86
2023-05-25T04:09:43.163Z,24.86
2023-05-25T04:10:43.181Z,24.86
2023-05-25T04:11:43.221Z,24.84
2023-05-25T04:12:43.274Z,24.81
2023-05-25T04:13:43.339Z,24.80
2023-05-25T04:14:43.400Z,24.81
2023-05-25T04:15:43.647Z,24.81
2023-05-25T04:16:43.607Z,24.81
2023-05-25T04:17:43.580Z,24.82
2023-05-25T04:18:43.641Z,24.83
2023-05-25T04:19:43.649Z,24.82
2023-05-25T04:20:43.787Z,24.82
2023-05-25T04:21:43.760Z,24.80
2023-05-25T04:22:43.826Z,24.80
2023-05-25T04:23:43.897Z,24.79
2023-05-25T04:24:43.957Z,24.77
2023-05-25T04:25:44.221Z,24.75
2023-05-25T04:26:44.057Z,24.72
2023-05-25T04:27:44.123Z,24.71
2023-05-25T04:28:44.203Z,24.71
2023-05-25T04:29:44.302Z,24.69
2023-05-25T04:30:44.333Z,24.68
2023-05-25T04:31:44.425Z,24.69
2023-05-25T04:32:45.449Z,24.70
2023-05-25T04:33:44.480Z,24.70
2023-05-25T04:34:44.555Z,24.71
2023-05-25T04:35:44.784Z,24.71
2023-05-25T04:36:44.668Z,24.73
2023-05-25T04:37:44.743Z,24.73
2023-05-25T04:38:44.764Z,24.73
2023-05-25T04:39:44.856Z,24.75
2023-05-25T04:40:44.878Z,24.76
2023-05-25T04:41:44.947Z,24.77
2023-05-25T04:42:45.074Z,24.77
2023-05-25T04:44:03.540Z,24.79
2023-05-25T04:44:46.064Z,24.79
2023-05-25T04:45:45.258Z,24.79
2023-05-25T04:46:45.064Z,24.80
2023-05-25T04:47:45.052Z,24.82
2023-05-25T04:48:45.016Z,24.83
2023-05-25T04:49:45.035Z,24.84
2023-05-25T04:50:44.981Z,24.84
2023-05-25T04:51:44.995Z,24.86
2023-05-25T04:52:44.967Z,24.86
2023-05-25T04:53:44.964Z,24.87
2023-05-25T04:54:45.023Z,24.87
2023-05-25T04:55:45.384Z,24.87
2023-05-25T04:56:45.071Z,24.88
2023-05-25T04:57:45.117Z,24.90
2023-05-25T04:58:45.146Z,24.90
2023-05-25T04:59:45.163Z,24.92
2023-05-25T05:00:45.592Z,24.93
2023-05-25T05:01:45.398Z,24.95
2023-05-25T05:02:45.324Z,24.96
2023-05-25T05:03:45.308Z,24.97
2023-05-25T05:04:45.330Z,24.97
2023-05-25T05:05:45.606Z,24.98
2023-05-25T05:06:45.363Z,24.99
2023-05-25T05:07:45.420Z,25.00
2023-05-25T05:08:45.409Z,25.01
2023-05-25T05:09:45.429Z,25.02
2023-05-25T05:10:45.740Z,25.02
2023-05-25T05:11:45.475Z,25.03
2023-05-25T05:12:45.510Z,25.04
2023-05-25T05:13:45.523Z,25.05
2023-05-25T05:14:45.565Z,25.05
2023-05-25T05:15:45.763Z,25.06
2023-05-25T05:16:45.598Z,25.06
2023-05-25T05:17:45.684Z,25.07
2023-05-25T05:18:45.633Z,25.08
2023-05-25T05:19:45.635Z,25.08
2023-05-25T05:20:45.814Z,25.08
2023-05-25T05:21:45.687Z,25.10
2023-05-25T05:22:45.675Z,25.09
2023-05-25T05:23:45.681Z,25.10
2023-05-25T05:24:45.733Z,25.11
2023-05-25T05:25:45.938Z,25.11
2023-05-25T05:26:57.203Z,25.11
2023-05-25T05:27:46.782Z,25.11
2023-05-25T05:28:45.772Z,25.13
2023-05-25T05:29:45.723Z,25.13
2023-05-25T05:30:45.728Z,25.13
2023-05-25T05:31:45.881Z,25.15
2023-05-25T05:32:46.846Z,25.16
2023-05-25T05:33:45.742Z,25.17
2023-05-25T05:34:45.702Z,25.17
2023-05-25T05:35:45.946Z,25.19
2023-05-25T05:36:57.386Z,25.20
2023-05-25T05:37:46.644Z,25.22
2023-05-25T05:38:45.670Z,25.23
2023-05-25T05:39:45.652Z,25.26
2023-05-25T05:40:45.637Z,25.29
2023-05-25T05:41:45.653Z,25.30
2023-05-25T05:42:45.611Z,25.31
2023-05-25T05:43:45.659Z,25.32
2023-05-25T05:44:45.635Z,25.32
2023-05-25T05:45:45.862Z,25.32
2023-05-25T05:46:45.629Z,25.34
2023-05-25T05:47:45.619Z,25.35
2023-05-25T05:48:45.558Z,25.35
2023-05-25T05:49:45.611Z,25.36
2023-05-25T05:50:45.565Z,25.37
2023-05-25T05:51:45.583Z,25.39
2023-05-25T05:52:45.534Z,25.39
2023-05-25T05:53:45.536Z,25.38
2023-05-25T05:54:45.529Z,25.39
2023-05-25T05:55:46.955Z,25.38
2023-05-25T05:56:45.517Z,25.36
2023-05-25T05:57:45.515Z,25.37
2023-05-25T05:58:45.493Z,25.38
2023-05-25T05:59:45.505Z,25.39
2023-05-25T06:00:45.501Z,25.40
2023-05-25T06:01:45.562Z,25.41
2023-05-25T06:02:45.563Z,25.41
2023-05-25T06:03:45.477Z,25.42
2023-05-25T06:04:45.461Z,25.42
2023-05-25T06:05:45.734Z,25.43
2023-05-25T06:06:45.449Z,25.44
2023-05-25T06:07:45.446Z,25.43
2023-05-25T06:08:45.466Z,25.45
2023-05-25T06:09:45.427Z,25.47
2023-05-25T06:10:45.427Z,25.50
2023-05-25T06:11:45.409Z,25.51
2023-05-25T06:12:45.449Z,25.52
2023-05-25T06:13:46.583Z,25.54
2023-05-25T06:14:45.424Z,25.56
2023-05-25T06:15:45.661Z,25.57
2023-05-25T06:16:45.399Z,25.57
2023-05-25T06:17:45.395Z,25.58
2023-05-25T06:18:45.388Z,25.60
2023-05-25T06:19:45.368Z,25.62
2023-05-25T06:20:45.445Z,25.65
2023-05-25T06:21:45.347Z,25.65
2023-05-25T06:22:45.358Z,25.69
2023-05-25T06:23:45.338Z,25.71
2023-05-25T06:24:45.317Z,25.74
2023-05-25T06:25:45.452Z,25.78
2023-05-25T06:26:45.313Z,25.81
2023-05-25T06:27:45.267Z,25.85
2023-05-25T06:28:45.308Z,25.87
2023-05-25T06:29:45.280Z,25.87
2023-05-25T06:30:45.298Z,25.88
2023-05-25T06:31:45.325Z,25.90
2023-05-25T06:32:45.272Z,25.92
2023-05-25T06:33:45.281Z,25.93
2023-05-25T06:34:45.246Z,25.95
2023-05-25T06:35:47.058Z,25.96
2023-05-25T06:36:45.233Z,25.98
2023-05-25T06:37:45.197Z,26.01
2023-05-25T06:38:45.224Z,25.92
2023-05-25T06:39:45.268Z,25.75
2023-05-25T06:40:45.251Z,25.58
2023-05-25T06:41:45.297Z,25.42
2023-05-25T06:42:45.289Z,25.37
2023-05-25T06:43:45.250Z,25.30
2023-05-25T06:44:45.297Z,25.24
2023-05-25T06:45:45.638Z,25.19
2023-05-25T06:46:45.433Z,25.16
2023-05-25T06:47:45.444Z,25.17
2023-05-25T06:48:45.430Z,25.20
2023-05-25T06:49:45.430Z,25.24
2023-05-25T06:50:45.464Z,25.29
2023-05-25T06:51:45.481Z,25.34
2023-05-25T06:52:45.487Z,25.39
2023-05-25T06:53:45.479Z,25.43
2023-05-25T06:54:45.505Z,25.50
2023-05-25T06:55:45.721Z,25.55
2023-05-25T06:56:45.471Z,25.61
2023-05-25T06:57:45.468Z,25.65
2023-05-25T06:58:45.460Z,25.68
2023-05-25T06:59:45.484Z,25.73
2023-05-25T07:00:46.763Z,25.74
2023-05-25T07:01:45.668Z,25.80
2023-05-25T07:02:45.654Z,25.84
2023-05-25T07:03:45.654Z,25.86
2023-05-25T07:04:45.792Z,25.88
2023-05-25T07:05:46.023Z,25.91
2023-05-25T07:06:45.864Z,25.95
2023-05-25T07:07:45.886Z,25.98
2023-05-25T07:08:45.944Z,25.99
2023-05-25T07:09:46.010Z,26.03
2023-05-25T07:10:47.975Z,26.04
2023-05-25T07:11:46.025Z,26.08
2023-05-25T07:12:46.047Z,26.10
2023-05-25T07:13:46.050Z,26.10
2023-05-25T07:14:46.021Z,26.13
2023-05-25T07:15:46.925Z,26.15
2023-05-25T07:16:45.978Z,26.17
2023-05-25T07:17:46.012Z,26.21
2023-05-25T07:18:45.974Z,26.22
2023-05-25T07:19:46.053Z,26.25
2023-05-25T07:20:46.039Z,26.27
2023-05-25T07:21:45.940Z,26.29
2023-05-25T07:22:45.969Z,26.34
2023-05-25T07:23:45.938Z,26.37
2023-05-25T07:24:45.950Z,26.38
2023-05-25T07:25:46.285Z,26.40
2023-05-25T07:26:45.955Z,26.41
2023-05-25T07:27:45.948Z,26.43
2023-05-25T07:28:45.951Z,26.44
2023-05-25T07:29:45.943Z,26.46
2023-05-25T07:30:45.951Z,26.46
2023-05-25T07:31:46.035Z,26.48
2023-05-25T07:32:45.917Z,26.50
2023-05-25T07:33:45.916Z,26.49
2023-05-25T07:34:45.883Z,26.42
2023-05-25T07:35:46.154Z,26.29
2023-05-25T07:36:45.882Z,26.10
2023-05-25T07:37:46.316Z,25.96
2023-05-25T07:38:45.824Z,25.80
2023-05-25T07:39:45.858Z,25.73
2023-05-25T07:40:45.832Z,25.72
2023-05-25T07:41:45.859Z,25.71
2023-05-25T07:42:45.862Z,25.72
2023-05-25T07:43:45.802Z,25.75
2023-05-25T07:44:45.817Z,25.82
2023-05-25T07:45:46.003Z,25.87
2023-05-25T07:46:45.874Z,25.91
2023-05-25T07:47:45.842Z,25.91
2023-05-25T07:48:45.806Z,25.95
2023-05-25T07:49:45.824Z,25.99
2023-05-25T07:50:45.798Z,26.03
2023-05-25T07:51:45.847Z,26.04
2023-05-25T07:52:45.798Z,26.03
2023-05-25T07:53:45.763Z,26.07
2023-05-25T07:54:45.772Z,26.09
2023-05-25T07:55:46.086Z,26.12
2023-05-25T07:56:45.852Z,26.12
2023-05-25T07:57:45.917Z,26.12
2023-05-25T07:58:45.911Z,26.14
2023-05-25T07:59:45.987Z,26.15
2023-05-25T08:00:46.007Z,26.17
2023-05-25T08:01:46.101Z,26.19
2023-05-25T08:02:46.225Z,26.20
2023-05-25T08:03:49.457Z,26.19
2023-05-25T08:04:46.187Z,26.20
2023-05-25T08:05:46.241Z,26.22
2023-05-25T08:06:46.068Z,26.23
2023-05-25T08:07:46.113Z,26.25
2023-05-25T08:08:46.086Z,26.26
2023-05-25T08:09:46.094Z,26.26
2023-05-25T08:10:46.072Z,26.27
2023-05-25T08:11:46.075Z,26.27
2023-05-25T08:12:48.847Z,26.24
2023-05-25T08:13:46.063Z,26.22
2023-05-25T08:14:46.059Z,26.24
2023-05-25T08:15:46.196Z,26.25
2023-05-25T08:16:46.075Z,26.23
2023-05-25T08:17:46.040Z,26.24
2023-05-25T08:18:46.047Z,26.21
2023-05-25T08:19:46.014Z,26.21
2023-05-25T08:20:46.110Z,26.22
2023-05-25T08:21:46.018Z,26.22
2023-05-25T08:22:45.983Z,26.21
2023-05-25T08:23:46.005Z,26.21
2023-05-25T08:24:45.970Z,26.21
2023-05-25T08:25:46.055Z,26.22
2023-05-25T08:27:46.922Z,26.24
2023-05-25T08:28:45.967Z,26.26
2023-05-25T08:29:45.940Z,26.27
2023-05-25T08:30:46.027Z,26.27
2023-05-25T08:31:45.964Z,26.27
2023-05-25T08:32:45.949Z,26.28
2023-05-25T08:33:45.906Z,26.27
2023-05-25T08:34:45.905Z,26.26
2023-05-25T08:35:46.094Z,26.24
2023-05-25T08:36:45.891Z,26.23
2023-05-25T08:37:45.917Z,26.21
2023-05-25T08:38:45.961Z,26.17
2023-05-25T08:39:45.884Z,26.14
2023-05-25T08:40:45.848Z,26.15
2023-05-25T08:41:45.902Z,26.15
2023-05-25T08:42:45.926Z,26.14
2023-05-25T08:43:46.007Z,26.12
2023-05-25T08:44:46.042Z,26.11
2023-05-25T08:45:47.328Z,26.09
2023-05-25T08:46:46.140Z,26.11
2023-05-25T08:47:46.263Z,26.13
2023-05-25T08:48:46.334Z,26.14
2023-05-25T08:49:46.420Z,26.15
2023-05-25T08:50:46.297Z,26.17
2023-05-25T08:51:46.350Z,26.17
2023-05-25T08:52:46.432Z,26.18
2023-05-25T08:53:46.463Z,26.20
2023-05-25T08:54:46.816Z,26.19
2023-05-25T08:55:46.711Z,26.17
2023-05-25T08:56:46.545Z,26.18
2023-05-25T08:57:46.615Z,26.19
2023-05-25T08:58:46.684Z,26.18
2023-05-25T08:59:46.752Z,26.19
2023-05-25T09:00:46.821Z,26.19
2023-05-25T09:01:46.807Z,26.21
2023-05-25T09:02:46.888Z,26.25
2023-05-25T09:03:46.968Z,26.26
2023-05-25T09:04:46.867Z,26.24
2023-05-25T09:05:47.006Z,26.23
2023-05-25T09:06:57.180Z,26.23
2023-05-25T09:07:48.297Z,26.25
2023-05-25T09:08:46.929Z,26.26
2023-05-25T09:09:46.911Z,26.28
2023-05-25T09:10:46.898Z,26.30
2023-05-25T09:11:46.889Z,26.32
2023-05-25T09:12:46.901Z,26.34
2023-05-25T09:13:46.893Z,26.35
2023-05-25T09:14:46.895Z,26.37
2023-05-25T09:15:46.878Z,26.38
2023-05-25T09:16:46.975Z,26.39
2023-05-25T09:17:46.868Z,26.42
2023-05-25T09:18:46.860Z,26.45
2023-05-25T09:19:46.836Z,26.48
2023-05-25T09:20:47.642Z,26.49
2023-05-25T09:21:46.836Z,26.50
2023-05-25T09:22:46.822Z,26.48
2023-05-25T09:23:46.849Z,26.48
2023-05-25T09:24:46.783Z,26.51
2023-05-25T09:25:46.787Z,26.53
2023-05-25T09:26:48.154Z,26.54
2023-05-25T09:27:46.796Z,26.56
2023-05-25T09:28:46.781Z,26.58
2023-05-25T09:29:46.797Z,26.61
2023-05-25T09:30:46.854Z,26.62
2023-05-25T09:31:46.760Z,26.61
2023-05-25T09:32:46.799Z,26.61
2023-05-25T09:33:46.741Z,26.64
2023-05-25T09:34:46.835Z,26.66
2023-05-25T09:35:46.750Z,26.64
2023-05-25T09:36:46.943Z,26.61
2023-05-25T09:37:46.859Z,26.63
2023-05-25T09:38:46.875Z,26.66
2023-05-25T09:39:46.744Z,26.68
2023-05-25T09:40:47.009Z,26.69
2023-05-25T09:41:46.812Z,26.67
2023-05-25T09:42:46.748Z,26.67
2023-05-25T09:43:54.686Z,26.64
2023-05-25T09:44:47.729Z,26.60
2023-05-25T09:45:46.771Z,26.58
2023-05-25T09:46:46.792Z,26.55
2023-05-25T09:47:46.793Z,26.55
2023-05-25T09:48:46.728Z,26.55
2023-05-25T09:49:46.680Z,26.58
2023-05-25T09:50:48.952Z,26.58
2023-05-25T09:51:46.678Z,26.59
2023-05-25T09:52:46.690Z,26.59
2023-05-25T09:53:46.700Z,26.60
2023-05-25T09:54:46.660Z,26.56
2023-05-25T09:55:53.938Z,26.54
2023-05-25T09:56:47.679Z,26.49
2023-05-25T09:57:46.680Z,26.50
2023-05-25T09:58:46.700Z,26.51
2023-05-25T09:59:46.662Z,26.51
2023-05-25T10:00:46.856Z,26.51
2023-05-25T10:01:46.667Z,26.52
2023-05-25T10:02:46.649Z,26.53
2023-05-25T10:03:59.745Z,26.52
2023-05-25T10:04:47.604Z,26.49
2023-05-25T10:05:46.583Z,26.46
2023-05-25T10:06:46.632Z,26.46
2023-05-25T10:07:46.615Z,26.46
2023-05-25T10:08:46.582Z,26.45
2023-05-25T10:09:46.561Z,26.45
2023-05-25T10:10:46.790Z,26.46
2023-05-25T10:11:46.533Z,26.48
2023-05-25T10:12:46.574Z,26.49
2023-05-25T10:13:46.603Z,26.47
2023-05-25T10:14:46.580Z,26.50
2023-05-25T10:15:46.547Z,26.52
2023-05-25T10:16:46.575Z,26.55
2023-05-25T10:17:46.604Z,26.56
2023-05-25T10:18:46.511Z,26.57
2023-05-25T10:19:46.504Z,26.58
2023-05-25T10:20:46.589Z,26.58
2023-05-25T10:21:46.499Z,26.57
2023-05-25T10:22:46.476Z,26.56
2023-05-25T10:23:46.504Z,26.56
2023-05-25T10:24:46.520Z,26.56
2023-05-25T10:25:46.477Z,26.57
2023-05-25T10:26:46.473Z,26.58
2023-05-25T10:27:46.482Z,26.59
2023-05-25T10:28:46.485Z,26.60
2023-05-25T10:29:46.480Z,26.59
2023-05-25T10:30:46.448Z,26.59
2023-05-25T10:31:46.480Z,26.59
2023-05-25T10:32:46.499Z,26.59
2023-05-25T10:33:49.277Z,26.59
2023-05-25T10:34:47.455Z,26.60
2023-05-25T10:36:01.391Z,26.61
2023-05-25T10:36:47.396Z,26.61
2023-05-25T10:37:46.427Z,26.62
2023-05-25T10:38:46.407Z,26.64
2023-05-25T10:39:46.395Z,26.64
2023-05-25T10:40:46.346Z,26.64
2023-05-25T10:41:46.372Z,26.66
2023-05-25T10:42:46.390Z,26.67
2023-05-25T10:43:46.390Z,26.66
2023-05-25T10:44:46.387Z,26.68
2023-05-25T10:45:46.612Z,26.69
2023-05-25T10:46:46.472Z,26.70
2023-05-25T10:47:46.623Z,26.71
2023-05-25T10:48:46.659Z,26.71
2023-05-25T10:49:46.717Z,26.70
2023-05-25T10:50:46.730Z,26.71
2023-05-25T10:51:46.758Z,26.73
2023-05-25T10:52:46.800Z,26.73
2023-05-25T10:53:46.859Z,26.74
2023-05-25T10:54:46.968Z,26.74
2023-05-25T10:55:47.224Z,26.77
2023-05-25T10:56:47.141Z,26.77
2023-05-25T10:57:47.115Z,26.78
2023-05-25T10:58:47.204Z,26.78
2023-05-25T10:59:47.254Z,26.79
2023-05-25T11:00:47.392Z,26.80
2023-05-25T11:01:47.428Z,26.82
2023-05-25T11:02:47.389Z,26.83
2023-05-25T11:03:47.540Z,26.84
2023-05-25T11:04:47.538Z,26.85
2023-05-25T11:05:47.638Z,26.85
2023-05-25T11:06:47.600Z,26.86
2023-05-25T11:07:47.660Z,26.86
2023-05-25T11:08:47.698Z,26.88
2023-05-25T11:09:47.740Z,26.87
2023-05-25T11:10:47.906Z,26.88
2023-05-25T11:11:47.913Z,26.88
2023-05-25T11:12:47.905Z,26.87
2023-05-25T11:13:47.943Z,26.87
2023-05-25T11:14:47.990Z,26.87
2023-05-25T11:15:48.069Z,26.87
2023-05-25T11:16:48.162Z,26.86
2023-05-25T11:17:48.304Z,26.82
2023-05-25T11:18:48.253Z,26.77
2023-05-25T11:19:50.371Z,26.69
2023-05-25T11:20:48.348Z,26.67
2023-05-25T11:21:48.398Z,26.65
2023-05-25T11:22:49.969Z,26.67
2023-05-25T11:23:48.341Z,26.68
2023-05-25T11:24:48.287Z,26.69
2023-05-25T11:25:48.300Z,26.71
2023-05-25T11:26:48.287Z,26.74
2023-05-25T11:27:48.256Z,26.73
2023-05-25T11:28:48.238Z,26.73
2023-05-25T11:29:48.264Z,26.69
2023-05-25T11:30:48.254Z,26.66
2023-05-25T11:31:48.290Z,26.65
2023-05-25T11:32:48.272Z,26.63
2023-05-25T11:33:48.262Z,26.60
2023-05-25T11:34:48.283Z,26.57
2023-05-25T11:35:48.225Z,26.56
2023-05-25T11:36:48.220Z,26.52
2023-05-25T11:37:48.226Z,26.51
2023-05-25T11:38:59.819Z,26.51
2023-05-25T11:39:49.221Z,26.51
2023-05-25T11:40:48.415Z,26.51
2023-05-25T11:41:48.203Z,26.48
2023-05-25T11:42:48.208Z,26.47
2023-05-25T11:43:48.180Z,26.45
2023-05-25T11:44:48.183Z,26.43
2023-05-25T11:45:48.177Z,26.42
2023-05-25T11:46:48.161Z,26.43
2023-05-25T11:47:48.206Z,26.43
2023-05-25T11:48:48.120Z,26.42
2023-05-25T11:49:48.161Z,26.43
2023-05-25T11:50:48.159Z,26.43
2023-05-25T11:51:48.120Z,26.41
2023-05-25T11:52:48.134Z,26.41
2023-05-25T11:53:48.082Z,26.43
2023-05-25T11:54:48.114Z,26.44
2023-05-25T11:55:48.096Z,26.44
2023-05-25T11:56:48.087Z,26.44
2023-05-25T11:57:48.247Z,26.45
2023-05-25T11:58:48.072Z,26.44
2023-05-25T11:59:48.062Z,26.45
2023-05-25T12:00:48.065Z,26.45
2023-05-25T12:01:48.079Z,26.48
2023-05-25T12:02:48.200Z,26.51
2023-05-25T12:03:48.140Z,26.53
2023-05-25T12:04:48.097Z,26.55
2023-05-25T12:05:48.068Z,26.54
2023-05-25T12:06:48.069Z,26.56
2023-05-25T12:07:48.130Z,26.56
2023-05-25T12:08:48.126Z,26.57
2023-05-25T12:09:48.121Z,26.58
2023-05-25T12:10:49.846Z,26.61
2023-05-25T12:11:48.232Z,26.62
2023-05-25T12:12:48.330Z,26.62
2023-05-25T12:13:48.367Z,26.63
2023-05-25T12:14:48.440Z,26.65
2023-05-25T12:15:48.549Z,26.67
2023-05-25T12:16:48.665Z,26.68
2023-05-25T12:17:48.638Z,26.69
2023-05-25T12:18:48.668Z,26.68
2023-05-25T12:19:48.726Z,26.71
2023-05-25T12:20:48.996Z,26.72
2023-05-25T12:21:48.833Z,26.72
2023-05-25T12:22:48.913Z,26.73
2023-05-25T12:23:48.913Z,26.73
2023-05-25T12:24:49.012Z,26.75
2023-05-25T12:25:51.165Z,26.74
2023-05-25T12:26:49.171Z,26.71
2023-05-25T12:27:49.166Z,26.71
2023-05-25T12:28:49.209Z,26.70
2023-05-25T12:29:49.295Z,26.70
2023-05-25T12:30:49.397Z,26.72
2023-05-25T12:31:49.437Z,26.72
2023-05-25T12:32:49.576Z,26.73
2023-05-25T12:33:49.532Z,26.73
2023-05-25T12:34:49.596Z,26.74
2023-05-25T12:35:49.638Z,26.74
2023-05-25T12:36:49.749Z,26.74
2023-05-25T12:37:49.731Z,26.76
2023-05-25T12:38:49.874Z,26.77
2023-05-25T12:39:49.873Z,26.79
2023-05-25T12:40:49.956Z,26.81
2023-05-25T12:41:51.820Z,26.83
2023-05-25T12:42:49.957Z,26.85
2023-05-25T12:43:49.990Z,26.87
2023-05-25T12:44:49.961Z,26.85
2023-05-25T12:45:49.927Z,26.86
2023-05-25T12:46:50.040Z,26.88
2023-05-25T12:47:49.988Z,26.90
2023-05-25T12:48:49.936Z,26.92
2023-05-25T12:49:49.980Z,26.93
2023-05-25T12:50:51.229Z,26.96
2023-05-25T12:51:49.911Z,26.96
2023-05-25T12:52:49.909Z,26.98
2023-05-25T12:53:49.883Z,27.00